MDT,Max TemperatureF,Mean TemperatureF,Min TemperatureF,Max Dew PointF,MeanDew PointF,Min DewpointF,Max Humidity, Mean Humidity, Min Humidity, Max Sea Level PressureIn, Mean Sea Level PressureIn, Min Sea Level PressureIn, Max VisibilityMiles, Mean VisibilityMiles, Min VisibilityMiles, Max Wind SpeedMPH, Mean Wind SpeedMPH, Max Gust SpeedMPH,PrecipitationIn, CloudCover, Events, WindDirDegrees
2012-4-1,50,43,35,39,30,21,85,61,37,30.06,29.74,29.50,10,10,10,23,11,33,T,6,Rain,189
2012-4-2,49,38,26,29,24,19,85,60,34,30.34,30.26,30.09,10,10,10,14,6,20,0.00,5,,174
2012-4-3,58,40,22,30,24,20,92,59,25,30.24,30.01,29.80,10,10,10,15,5,18,0.00,1,,132
2012-4-4,53,40,26,38,28,22,92,65,38,29.97,29.77,29.60,10,10,7,21,7,28,0.07,5,Rain,252
2012-4-5,45,35,25,29,25,22,92,69,45,30.06,30.01,29.96,10,10,7,17,3,21,T,5,,214
2012-4-6,44,34,24,30,24,20,92,65,37,30.24,30.09,30.01,10,10,10,15,5,18,T,5,,236
2012-4-7,47,35,22,32,27,19,89,63,37,30.37,30.30,30.19,10,10,6,17,7,25,T,6,Snow,150
2012-4-8,56,38,20,25,18,5,92,53,13,30.45,30.37,30.23,10,10,10,18,4,23,0.00,1,,359
2012-4-9,64,51,38,28,22,17,53,37,20,30.23,30.14,30.01,10,10,10,17,8,22,0.00,0,,19
2012-4-10,70,53,35,38,30,26,71,46,20,30.04,29.90,29.75,10,10,10,17,5,21,0.00,0,,17
2012-4-11,72,59,46,40,32,30,55,40,24,29.76,29.56,29.35,10,10,10,21,10,26,0.00,1,,6
2012-4-12,54,44,33,45,40,29,93,66,38,29.75,29.65,29.57,10,8,2,17,6,23,0.43,6,Rain,199
2012-4-13,57,43,28,35,29,23,100,66,32,29.83,29.76,29.70,10,10,10,18,5,23,0.00,2,,194
2012-4-14,58,41,23,34,27,19,96,60,23,29.91,29.83,29.76,10,10,10,17,6,29,0.00,3,,272
2012-4-15,47,40,32,35,31,29,89,69,49,30.12,30.04,29.90,10,8,2,22,9,26,0.02,8,Rain-Snow,27
2012-4-16,53,46,38,42,37,33,92,71,50,30.10,30.02,29.96,10,10,10,18,7,25,0.01,8,Rain,178
2012-4-17,56,48,39,40,33,26,89,62,35,30.12,30.05,29.99,10,10,10,18,7,23,T,7,,191
2012-4-18,50,44,37,43,37,30,92,79,65,30.01,29.97,29.92,10,9,2,18,8,25,0.13,8,Rain,167
2012-4-19,54,46,37,38,35,29,100,71,41,30.14,30.07,29.97,10,10,10,16,7,20,T,7,Rain,172
2012-4-20,59,47,34,46,40,35,96,72,47,30.14,30.04,29.99,10,10,10,20,6,33,0.13,6,Rain,239
2012-4-21,60,46,32,44,40,33,100,78,55,30.21,30.18,30.13,10,10,10,12,4,18,T,5,,175
2012-4-22,76,55,33,45,40,34,100,63,25,30.19,30.07,29.93,10,10,10,12,3,14,0.00,0,,272
2012-4-23,80,61,41,47,42,38,86,57,28,29.97,29.87,29.73,10,10,10,16,5,18,0.00,0,,85
2012-4-24,77,62,46,49,43,37,93,59,25,29.81,29.76,29.68,10,10,10,25,7,37,T,3,Rain,239
2012-4-25,71,56,40,46,43,40,96,65,33,29.89,29.81,29.67,10,10,10,16,6,21,0.00,2,,152
2012-4-26,67,57,46,53,47,40,96,76,55,29.69,29.56,29.35,10,10,3,24,6,29,0.33,8,Rain,31
2012-4-27,48,43,38,39,34,27,85,65,45,30.12,29.98,29.70,10,10,10,18,9,23,T,8,Rain,177
2012-4-28,56,46,35,37,33,30,82,62,41,30.19,30.13,30.06,10,10,10,13,4,16,0.00,6,,177
2012-4-29,56,43,30,41,36,29,100,75,50,30.09,30.01,29.86,10,10,10,21,6,25,0.01,5,,177
2012-4-30,58,49,39,46,41,38,100,78,55,29.84,29.65,29.58,10,9,6,17,7,23,0.18,7,Rain,172